createdAt,value
2022-08-17T00:00:34.588Z,76.54
2022-08-17T00:03:06.175Z,75.70
2022-08-17T00:05:44.388Z,76.08
2022-08-17T00:08:14.795Z,76.57
2022-08-17T00:10:44.444Z,77.15
2022-08-17T00:13:17.306Z,77.07
2022-08-17T00:15:46.679Z,76.21
2022-08-17T00:19:02.047Z,76.75
2022-08-17T00:21:10.569Z,76.84
2022-08-17T00:23:44.351Z,76.47
2022-08-17T00:26:43.489Z,76.03
2022-08-17T00:29:07.634Z,76.09
2022-08-17T00:31:36.290Z,76.95
2022-08-17T00:34:06.451Z,76.89
2022-08-17T00:36:33.973Z,76.96
2022-08-17T00:39:01.641Z,76.07
2022-08-17T00:41:29.541Z,77.37
2022-08-17T00:44:05.158Z,77.02
2022-08-17T00:46:41.028Z,75.95
2022-08-17T00:49:11.569Z,74.82
2022-08-17T00:51:53.026Z,74.92
2022-08-17T00:54:42.057Z,75.55
2022-08-17T00:57:17.469Z,75.25
2022-08-17T01:00:02.032Z,75.14
2022-08-17T01:02:41.676Z,76.23
2022-08-17T01:05:18.590Z,75.52
2022-08-17T01:07:50.921Z,74.69
2022-08-17T01:10:59.577Z,75.04
2022-08-17T01:13:15.084Z,76.53
2022-08-17T01:15:53.154Z,75.83
2022-08-17T01:18:21.426Z,74.72
2022-08-17T01:20:51.863Z,74.22
2022-08-17T01:23:22.561Z,74.84
2022-08-17T01:25:54.695Z,73.80
2022-08-17T01:28:33.418Z,74.85
2022-08-17T01:31:14.138Z,74.40
2022-08-17T01:33:42.366Z,75.62
2022-08-17T01:36:10.660Z,75.04
2022-08-17T01:38:39.623Z,75.08
2022-08-17T01:41:12.520Z,74.27
2022-08-17T01:44:02.685Z,74.72
2022-08-17T01:46:34.812Z,75.51
2022-08-17T01:49:08.660Z,76.00
2022-08-17T01:51:37.063Z,75.87
2022-08-17T01:54:10.206Z,76.27
2022-08-17T01:56:41.897Z,77.30
2022-08-17T01:59:11.371Z,78.16
2022-08-17T02:01:39.563Z,76.71
2022-08-17T02:04:08.507Z,78.04
2022-08-17T02:06:44.928Z,79.30
2022-08-17T02:09:25.333Z,78.61
2022-08-17T02:11:59.940Z,79.43
2022-08-17T02:14:47.461Z,78.93
2022-08-17T02:17:15.506Z,78.44
2022-08-17T02:19:43.664Z,78.73
2022-08-17T02:22:11.983Z,79.07
2022-08-17T02:25:00.159Z,79.16
2022-08-17T02:27:28.721Z,78.06
2022-08-17T02:29:57.681Z,77.96
2022-08-17T02:32:28.385Z,77.43
2022-08-17T02:34:58.022Z,77.28
2022-08-17T02:37:27.931Z,77.33
2022-08-17T02:39:59.602Z,77.17
2022-08-17T02:42:41.521Z,78.17
2022-08-17T02:45:18.681Z,79.72
2022-08-17T02:47:47.460Z,79.26
2022-08-17T02:50:18.216Z,79.16
2022-08-17T02:52:47.468Z,79.64
2022-08-17T02:55:29.401Z,80.63
2022-08-17T02:57:57.523Z,80.93
2022-08-17T03:00:29.606Z,83.53
2022-08-17T03:02:57.867Z,83.78
2022-08-17T03:05:29.055Z,83.80
2022-08-17T03:07:57.677Z,84.45
2022-08-17T03:10:26.081Z,84.46
2022-08-17T03:12:54.544Z,84.34
2022-08-17T03:15:30.534Z,84.45
2022-08-17T03:17:59.659Z,84.57
2022-08-17T03:20:29.692Z,84.08
2022-08-17T03:23:01.829Z,84.61
2022-08-17T03:25:34.826Z,84.65
2022-08-17T03:28:03.788Z,84.08
2022-08-17T03:30:32.144Z,84.04
2022-08-17T03:33:03.001Z,85.32
2022-08-17T03:35:32.712Z,85.67
2022-08-17T03:38:01.406Z,85.86
2022-08-17T03:40:55.559Z,85.87
2022-08-17T03:43:19.879Z,85.52
2022-08-17T03:46:06.248Z,85.24
2022-08-17T03:49:11.340Z,86.53
2022-08-17T03:52:00.031Z,86.80
2022-08-17T03:54:48.626Z,86.52
2022-08-17T03:57:16.716Z,86.55
2022-08-17T03:59:45.066Z,85.98
2022-08-17T04:02:22.385Z,86.58
2022-08-17T04:04:52.490Z,86.65
2022-08-17T04:07:21.760Z,87.23
2022-08-17T04:09:49.881Z,86.56
2022-08-17T04:12:19.983Z,87.08
2022-08-17T04:14:51.911Z,85.72
2022-08-17T04:17:28.676Z,86.45
2022-08-17T04:19:57.148Z,86.37
2022-08-17T04:22:30.531Z,85.81
2022-08-17T04:25:13.802Z,85.24
2022-08-17T04:27:42.411Z,85.51
2022-08-17T04:30:10.649Z,85.41
2022-08-17T04:33:06.370Z,86.01
2022-08-17T04:35:48.383Z,86.91
2022-08-17T04:38:20.263Z,86.98
2022-08-17T04:41:07.220Z,88.62
2022-08-17T04:43:36.985Z,88.88
2022-08-17T04:46:08.801Z,88.91
2022-08-17T04:48:40.474Z,89.19
2022-08-17T04:51:12.415Z,90.44
2022-08-17T04:53:42.840Z,90.54
2022-08-17T04:56:16.015Z,90.87
2022-08-17T04:58:47.857Z,89.98
2022-08-17T05:01:16.696Z,90.95
2022-08-17T05:03:56.327Z,90.60
2022-08-17T05:06:24.528Z,90.45
2022-08-17T05:08:52.843Z,90.36
2022-08-17T05:11:21.173Z,90.38
2022-08-17T05:13:52.682Z,90.46
2022-08-17T05:16:22.391Z,90.29
2022-08-17T05:18:50.155Z,90.14
2022-08-17T05:21:18.528Z,90.13
2022-08-17T05:23:47.181Z,89.96
2022-08-17T05:26:26.664Z,90.08
2022-08-17T05:28:59.602Z,89.86
2022-08-17T05:31:29.429Z,90.22
2022-08-17T05:33:58.080Z,89.79
2022-08-17T05:36:43.123Z,89.11
2022-08-17T05:39:15.672Z,88.33
2022-08-17T05:41:48.738Z,88.56
2022-08-17T05:44:16.656Z,88.82
2022-08-17T05:46:51.444Z,88.45
2022-08-17T05:49:27.323Z,87.66
2022-08-17T05:52:04.462Z,86.64
2022-08-17T05:54:58.997Z,86.27
2022-08-17T05:57:39.492Z,86.44
2022-08-17T06:00:33.094Z,85.53
2022-08-17T06:03:29.151Z,83.35
2022-08-17T06:06:21.614Z,82.92
2022-08-17T06:09:01.191Z,82.84
2022-08-17T06:11:47.157Z,81.92
2022-08-17T06:14:42.636Z,81.34
2022-08-17T06:17:15.741Z,79.75
2022-08-17T06:19:54.501Z,78.44
2022-08-17T06:22:27.317Z,80.38
2022-08-17T06:25:02.470Z,80.06
2022-08-17T06:27:46.057Z,78.48
2022-08-17T06:30:59.337Z,77.19
2022-08-17T06:33:34.364Z,76.21
2022-08-17T06:36:29.473Z,75.84
2022-08-17T06:39:12.487Z,73.49
2022-08-17T06:41:46.201Z,71.14
2022-08-17T06:44:50.279Z,71.32
2022-08-17T06:47:56.110Z,71.33
2022-08-17T06:50:31.168Z,70.00
2022-08-17T06:53:31.713Z,69.71
2022-08-17T06:56:05.416Z,66.65
2022-08-17T06:58:35.773Z,66.80
2022-08-17T07:01:15.427Z,65.45
2022-08-17T07:03:55.508Z,66.78
2022-08-17T07:06:53.289Z,66.58
2022-08-17T07:09:29.360Z,69.06
2022-08-17T07:12:05.801Z,71.36
2022-08-17T07:14:37.880Z,71.72
2022-08-17T07:17:13.546Z,69.06
2022-08-17T07:19:45.577Z,69.58
2022-08-17T07:22:30.483Z,67.67
2022-08-17T07:25:20.885Z,66.00
2022-08-17T07:27:54.309Z,66.53
2022-08-17T07:30:31.782Z,65.43
2022-08-17T07:33:20.397Z,65.34
2022-08-17T07:35:50.074Z,64.57
2022-08-17T07:38:26.808Z,65.59
2022-08-17T07:40:57.895Z,64.41
2022-08-17T07:43:34.737Z,62.30
2022-08-17T07:46:35.869Z,59.55
2022-08-17T07:49:05.042Z,59.22
2022-08-17T07:51:37.876Z,59.96
2022-08-17T07:54:22.327Z,60.09
2022-08-17T07:56:51.427Z,58.22
2022-08-17T07:59:26.354Z,57.14
2022-08-17T08:02:03.633Z,56.79
2022-08-17T08:05:06.512Z,56.59
2022-08-17T08:07:42.605Z,56.24
2022-08-17T08:10:29.921Z,54.45
2022-08-17T08:13:14.222Z,52.48
2022-08-17T08:15:53.507Z,52.75
2022-08-17T08:18:53.537Z,51.81
2022-08-17T08:21:47.915Z,50.99
2022-08-17T08:24:31.339Z,48.79
2022-08-17T08:27:12.495Z,49.23
2022-08-17T08:30:10.195Z,50.63
2022-08-17T08:32:42.851Z,51.01
2022-08-17T08:35:26.686Z,49.19
2022-08-17T08:38:01.013Z,46.50
2022-08-17T08:40:40.397Z,45.54
2022-08-17T08:43:40.576Z,45.89
2022-08-17T08:46:15.695Z,45.54
2022-08-17T08:48:57.948Z,46.21
2022-08-17T08:51:41.472Z,45.91
2022-08-17T08:54:39.453Z,44.58
2022-08-17T08:57:33.720Z,44.26
2022-08-17T09:00:16.251Z,42.77
2022-08-17T09:03:05.385Z,41.97
2022-08-17T09:06:37.439Z,40.67
2022-08-17T09:09:21.824Z,39.82
2022-08-17T09:12:08.438Z,40.97
2022-08-17T09:14:47.330Z,39.59
2022-08-17T09:17:18.735Z,40.07
2022-08-17T09:20:06.007Z,38.71
2022-08-17T09:22:41.513Z,38.56
2022-08-17T09:25:14.767Z,39.11
2022-08-17T09:28:03.941Z,37.42
2022-08-17T09:30:46.674Z,37.64
2022-08-17T09:33:22.894Z,37.51
2022-08-17T09:36:02.423Z,36.39
2022-08-17T09:38:44.360Z,36.76
2022-08-17T09:41:49.029Z,35.47
2022-08-17T09:44:36.320Z,33.95
2022-08-17T09:47:14.613Z,32.25
2022-08-17T09:49:49.727Z,31.89
2022-08-17T09:52:29.418Z,30.59
2022-08-17T09:55:00.049Z,32.29
2022-08-17T09:57:59.501Z,32.29
2022-08-17T10:00:36.063Z,30.58
2022-08-17T10:03:21.442Z,30.52
2022-08-17T10:05:56.795Z,29.12
2022-08-17T10:08:37.435Z,29.03
2022-08-17T10:11:08.459Z,27.93
2022-08-17T10:13:53.156Z,27.32
2022-08-17T10:16:30.645Z,27.53
2022-08-17T10:19:28.385Z,26.78
2022-08-17T10:22:35.430Z,28.75
2022-08-17T10:25:33.292Z,28.54
2022-08-17T10:28:20.008Z,30.00
2022-08-17T10:31:16.634Z,30.07
2022-08-17T10:34:10.884Z,28.39
2022-08-17T10:36:47.444Z,29.92
2022-08-17T10:39:19.469Z,28.49
2022-08-17T10:41:50.885Z,29.43
2022-08-17T10:44:41.082Z,30.48
2022-08-17T10:47:11.750Z,28.98
2022-08-17T10:49:54.457Z,29.29
2022-08-17T10:52:27.827Z,29.95
2022-08-17T10:54:56.747Z,28.87
2022-08-17T10:57:32.259Z,29.87
2022-08-17T11:00:11.096Z,29.64
2022-08-17T11:02:47.947Z,29.48
2022-08-17T11:05:28.617Z,30.05
2022-08-17T11:08:22.826Z,29.50
2022-08-17T11:11:12.399Z,30.18
2022-08-17T11:13:52.803Z,30.18
2022-08-17T11:16:47.913Z,30.32
2022-08-17T11:19:51.650Z,31.29
2022-08-17T11:22:44.701Z,30.94
2022-08-17T11:25:17.204Z,30.81
2022-08-17T11:27:53.617Z,31.08
2022-08-17T11:30:49.312Z,33.00
2022-08-17T11:33:29.787Z,34.61
2022-08-17T11:36:04.177Z,35.07
2022-08-17T11:39:04.504Z,33.96
2022-08-17T11:41:53.782Z,34.06
2022-08-17T11:44:46.793Z,33.23
2022-08-17T11:47:53.033Z,32.84
2022-08-17T11:51:12.517Z,33.94
2022-08-17T11:53:40.009Z,34.50
2022-08-17T11:56:49.315Z,34.26
2022-08-17T11:59:42.044Z,34.13
2022-08-17T12:02:32.646Z,35.65
2022-08-17T12:05:21.092Z,35.42
2022-08-17T12:08:21.751Z,36.52
2022-08-17T12:11:03.484Z,35.46
2022-08-17T12:13:39.970Z,36.01
2022-08-17T12:16:10.017Z,35.81
2022-08-17T12:18:39.796Z,36.93
2022-08-17T12:21:38.133Z,35.84
2022-08-17T12:24:33.360Z,33.85
2022-08-17T12:27:04.650Z,33.02
2022-08-17T12:29:35.951Z,33.09
2022-08-17T12:32:08.409Z,32.67
2022-08-17T12:34:40.036Z,31.99
2022-08-17T12:37:16.469Z,31.67
2022-08-17T12:40:03.961Z,31.89
2022-08-17T12:42:37.401Z,33.49
2022-08-17T12:45:26.119Z,31.88
2022-08-17T12:48:10.168Z,32.21
2022-08-17T12:50:40.619Z,32.43
2022-08-17T12:53:31.047Z,32.58
2022-08-17T12:56:00.825Z,32.68
2022-08-17T12:58:32.419Z,32.27
2022-08-17T13:01:11.798Z,31.25
2022-08-17T13:03:52.735Z,28.98
2022-08-17T13:06:33.149Z,29.40
2022-08-17T13:09:36.100Z,30.73
2022-08-17T13:12:08.970Z,30.49
2022-08-17T13:14:36.673Z,30.29
2022-08-17T13:17:09.865Z,29.34
2022-08-17T13:19:49.906Z,28.76
2022-08-17T13:22:22.400Z,29.48
2022-08-17T13:24:56.449Z,27.98
2022-08-17T13:27:27.641Z,24.98
2022-08-17T13:29:59.905Z,23.95
2022-08-17T13:32:31.307Z,25.87
2022-08-17T13:35:14.139Z,26.15
2022-08-17T13:38:06.546Z,24.99
2022-08-17T13:40:38.970Z,22.85
2022-08-17T13:43:06.621Z,21.35
2022-08-17T13:45:40.246Z,21.64
2022-08-17T13:48:12.498Z,23.71
2022-08-17T13:50:49.411Z,24.48
2022-08-17T13:53:21.673Z,25.82
2022-08-17T13:55:55.536Z,27.27
2022-08-17T13:58:27.436Z,27.77
2022-08-17T14:00:56.333Z,27.05
2022-08-17T14:03:24.843Z,28.54
2022-08-17T14:05:52.845Z,30.10
2022-08-17T14:08:20.912Z,30.75
2022-08-17T14:10:58.715Z,32.80
2022-08-17T14:13:26.378Z,30.92
2022-08-17T14:15:56.708Z,31.67
2022-08-17T14:18:35.679Z,32.35
2022-08-17T14:21:12.786Z,33.13
2022-08-17T14:23:40.916Z,33.45
2022-08-17T14:26:11.662Z,33.57
2022-08-17T14:28:45.914Z,34.20
2022-08-17T14:31:24.181Z,35.17
2022-08-17T14:33:52.276Z,35.08
2022-08-17T14:36:19.892Z,35.28
2022-08-17T14:38:47.913Z,35.34
2022-08-17T14:41:20.053Z,36.35
2022-08-17T14:43:52.929Z,36.88
2022-08-17T14:46:20.520Z,37.36
2022-08-17T14:48:52.731Z,38.58
2022-08-17T14:51:23.841Z,38.65
2022-08-17T14:53:52.115Z,37.44
2022-08-17T14:56:19.716Z,35.51
2022-08-17T14:58:47.189Z,36.22
2022-08-17T15:01:15.198Z,34.84
2022-08-17T15:03:43.376Z,35.27
2022-08-17T15:06:14.751Z,34.98
2022-08-17T15:08:44.408Z,34.63
2022-08-17T15:11:14.441Z,32.99
2022-08-17T15:13:52.729Z,30.90
2022-08-17T15:16:20.783Z,28.08
2022-08-17T15:18:49.123Z,28.12
2022-08-17T15:21:18.198Z,28.58
2022-08-17T15:23:46.278Z,29.94
2022-08-17T15:26:14.763Z,29.49
2022-08-17T15:28:42.770Z,26.75
2022-08-17T15:31:10.213Z,24.39
2022-08-17T15:33:38.696Z,23.66
2022-08-17T15:36:07.828Z,22.76
2022-08-17T15:38:39.326Z,23.10
2022-08-17T15:41:09.462Z,23.40
2022-08-17T15:43:37.719Z,25.72
2022-08-17T15:46:12.087Z,25.66
2022-08-17T15:48:42.684Z,28.09
2022-08-17T15:51:21.343Z,29.67
2022-08-17T15:53:59.530Z,30.71
2022-08-17T15:56:32.749Z,31.13
2022-08-17T15:59:00.592Z,30.91
2022-08-17T16:02:21.538Z,31.63
2022-08-17T16:04:27.236Z,32.27
2022-08-17T16:06:59.704Z,32.59
2022-08-17T16:09:28.155Z,33.89
2022-08-17T16:11:56.421Z,36.43
2022-08-17T16:14:32.464Z,37.50
2022-08-17T16:17:04.599Z,38.32
2022-08-17T16:19:34.417Z,38.47
2022-08-17T16:22:02.821Z,38.74
2022-08-17T16:24:31.324Z,39.54
2022-08-17T16:26:58.990Z,39.89
2022-08-17T16:29:27.749Z,39.81
2022-08-17T16:31:56.209Z,39.68
2022-08-17T16:34:23.898Z,40.41
2022-08-17T16:36:55.953Z,40.42
2022-08-17T16:39:33.078Z,39.67
2022-08-17T16:42:02.694Z,38.72
2022-08-17T16:44:32.176Z,38.31
2022-08-17T16:47:01.367Z,38.22
2022-08-17T16:49:37.046Z,39.70
2022-08-17T16:52:10.367Z,40.83
2022-08-17T16:54:44.725Z,41.61
2022-08-17T16:57:13.719Z,42.52
2022-08-17T16:59:44.896Z,42.62
2022-08-17T17:02:24.889Z,44.38
2022-08-17T17:05:22.785Z,44.90
2022-08-17T17:07:58.107Z,45.97
2022-08-17T17:10:44.853Z,46.31
2022-08-17T17:13:43.353Z,45.97
2022-08-17T17:16:26.344Z,46.39
2022-08-17T17:19:04.494Z,47.32
2022-08-17T17:22:18.359Z,47.84
2022-08-17T17:25:07.354Z,48.96
2022-08-17T17:27:34.927Z,48.96
2022-08-17T17:30:15.382Z,48.90
2022-08-17T17:32:49.770Z,48.85
2022-08-17T17:35:21.815Z,50.23
2022-08-17T17:37:52.164Z,52.51
2022-08-17T17:40:37.262Z,52.82
2022-08-17T17:43:34.763Z,57.69
2022-08-17T17:46:27.815Z,62.40
2022-08-17T17:48:53.774Z,63.85
2022-08-17T17:52:07.197Z,64.62
2022-08-17T17:54:36.263Z,67.70
2022-08-17T17:57:46.943Z,71.71
2022-08-17T18:00:23.586Z,72.77
2022-08-17T18:03:18.277Z,83.84
2022-08-17T18:05:57.406Z,87.89
2022-08-17T18:08:32.232Z,95.83
2022-08-17T18:11:14.148Z,100.00
2022-08-17T18:14:23.596Z,100.00
2022-08-17T18:16:56.954Z,100.00
2022-08-17T18:19:28.193Z,100.00
2022-08-17T18:22:02.446Z,100.00
2022-08-17T18:24:37.884Z,100.00
2022-08-17T18:27:25.239Z,100.00
2022-08-17T18:29:56.098Z,100.00
2022-08-17T18:32:32.481Z,100.00
2022-08-17T18:35:08.651Z,100.00
2022-08-17T18:37:51.538Z,100.00
2022-08-17T18:40:19.846Z,100.00
2022-08-17T18:42:50.644Z,100.00
2022-08-17T18:45:46.800Z,100.00
2022-08-17T18:48:32.975Z,100.00
2022-08-17T18:51:26.310Z,100.00
2022-08-17T18:54:23.520Z,100.00
2022-08-17T18:56:53.620Z,100.00
2022-08-17T18:59:41.199Z,100.00
2022-08-17T19:05:31.763Z,100.00
2022-08-17T19:08:14.658Z,100.00
2022-08-17T19:10:47.154Z,100.00
2022-08-17T19:13:24.996Z,100.00
2022-08-17T19:16:17.790Z,100.00
2022-08-17T19:19:04.797Z,100.00
2022-08-17T19:21:37.972Z,100.00
2022-08-17T19:24:19.481Z,100.00
2022-08-17T19:26:58.743Z,100.00
2022-08-17T19:29:41.072Z,100.00
2022-08-17T19:32:11.164Z,100.00
2022-08-17T19:34:39.689Z,100.00
2022-08-17T19:37:33.239Z,100.00
2022-08-17T19:40:09.208Z,100.00
2022-08-17T19:43:01.417Z,100.00
2022-08-17T19:45:35.043Z,100.00
2022-08-17T19:48:35.539Z,100.00
2022-08-17T19:51:10.576Z,100.00
2022-08-17T19:54:06.738Z,100.00
2022-08-17T19:56:39.308Z,100.00
2022-08-17T19:59:46.545Z,100.00
2022-08-17T20:02:39.134Z,100.00
2022-08-17T20:05:15.417Z,100.00
2022-08-17T20:07:52.125Z,100.00
2022-08-17T20:10:33.137Z,100.00
2022-08-17T20:13:08.558Z,100.00
2022-08-17T20:15:40.772Z,100.00
2022-08-17T20:18:30.651Z,100.00
2022-08-17T20:21:01.827Z,100.00
2022-08-17T20:23:50.590Z,100.00
2022-08-17T20:26:28.398Z,100.00
2022-08-17T20:29:14.580Z,100.00
2022-08-17T20:31:51.171Z,100.00
2022-08-17T20:34:34.923Z,100.00
2022-08-17T20:37:25.191Z,100.00
2022-08-17T20:39:53.314Z,99.95
2022-08-17T20:42:20.848Z,99.96
2022-08-17T20:44:51.958Z,99.59
2022-08-17T20:47:27.326Z,99.64
2022-08-17T20:50:10.632Z,99.42
2022-08-17T20:52:51.845Z,99.65
2022-08-17T20:55:35.766Z,100.00
2022-08-17T20:58:23.127Z,100.00
2022-08-17T21:00:56.629Z,100.00
2022-08-17T21:03:26.993Z,100.00
2022-08-17T21:05:59.913Z,100.00
2022-08-17T21:08:34.220Z,100.00
2022-08-17T21:11:56.766Z,100.00
2022-08-17T21:14:31.167Z,100.00
2022-08-17T21:17:05.850Z,100.00
2022-08-17T21:20:17.148Z,100.00
2022-08-17T21:23:25.529Z,100.00
2022-08-17T21:26:30.392Z,100.00
2022-08-17T21:29:29.759Z,100.00
2022-08-17T21:32:01.868Z,100.00
2022-08-17T21:34:31.412Z,100.00
2022-08-17T21:37:38.321Z,100.00
2022-08-17T21:40:18.585Z,100.00
2022-08-17T21:42:52.793Z,100.00
2022-08-17T21:45:28.351Z,100.00
2022-08-17T21:48:16.313Z,100.00
2022-08-17T21:51:05.867Z,100.00
2022-08-17T21:53:42.664Z,100.00
2022-08-17T21:56:13.075Z,100.00
2022-08-17T21:58:48.450Z,100.00
2022-08-17T22:01:22.167Z,100.00
2022-08-17T22:03:58.217Z,100.00
2022-08-17T22:06:39.074Z,100.00
2022-08-17T22:09:14.942Z,100.00
2022-08-17T22:12:01.369Z,100.00
2022-08-17T22:14:52.867Z,100.00
2022-08-17T22:17:24.259Z,100.00
2022-08-17T22:20:03.217Z,100.00
2022-08-17T22:22:56.153Z,100.00
2022-08-17T22:25:26.906Z,100.00
2022-08-17T22:28:01.129Z,100.00
2022-08-17T22:30:41.984Z,100.00
2022-08-17T22:33:33.562Z,100.00
2022-08-17T22:36:33.648Z,100.00
2022-08-17T22:39:26.317Z,100.00
2022-08-17T22:42:00.240Z,100.00
2022-08-17T22:44:31.721Z,100.00
2022-08-17T22:47:02.107Z,100.00
2022-08-17T22:49:54.264Z,100.00
2022-08-17T22:53:02.064Z,100.00
2022-08-17T22:55:52.333Z,100.00
2022-08-17T22:58:42.467Z,100.00
2022-08-17T23:01:29.869Z,100.00
2022-08-17T23:04:04.130Z,100.00
2022-08-17T23:06:36.473Z,100.00
2022-08-17T23:09:06.385Z,100.00
2022-08-17T23:11:48.999Z,100.00
2022-08-17T23:14:20.616Z,100.00
2022-08-17T23:16:53.133Z,100.00
2022-08-17T23:19:21.913Z,100.00
2022-08-17T23:21:52.735Z,100.00
2022-08-17T23:24:25.516Z,100.00
2022-08-17T23:26:57.132Z,100.00
2022-08-17T23:29:29.323Z,100.00
2022-08-17T23:31:59.962Z,100.00
2022-08-17T23:34:28.797Z,100.00
2022-08-17T23:36:56.413Z,100.00
2022-08-17T23:39:28.203Z,100.00
2022-08-17T23:42:01.453Z,100.00
2022-08-17T23:44:31.020Z,100.00
2022-08-17T23:46:58.521Z,100.00
2022-08-17T23:49:26.118Z,100.00
2022-08-17T23:51:55.139Z,100.00
2022-08-17T23:54:33.687Z,100.00
2022-08-17T23:57:02.426Z,100.00
2022-08-17T23:59:29.996Z,100.00
